createdAt,value
2018-12-18T00:00:03.237Z,5.10
2018-12-18T00:02:32.650Z,5.10
2018-12-18T00:05:09.030Z,4.70
2018-12-18T00:07:44.641Z,5.10
2018-12-18T00:10:13.298Z,5.30
2018-12-18T00:12:42.190Z,4.80
2018-12-18T00:15:11.022Z,5.10
2018-12-18T00:17:39.301Z,5.30
2018-12-18T00:20:07.842Z,5.00
2018-12-18T00:22:36.432Z,5.00
2018-12-18T00:25:05.388Z,5.40
2018-12-18T00:27:33.609Z,5.00
2018-12-18T00:30:03.441Z,5.40
2018-12-18T00:32:32.071Z,5.40
2018-12-18T00:35:00.563Z,5.10
2018-12-18T00:37:29.097Z,5.50
2018-12-18T00:39:57.357Z,5.40
2018-12-18T00:42:25.905Z,5.10
2018-12-18T00:44:54.117Z,5.10
2018-12-18T00:47:22.419Z,5.10
2018-12-18T00:49:50.646Z,4.90
2018-12-18T00:52:19.170Z,5.00
2018-12-18T00:54:47.422Z,5.20
2018-12-18T00:57:15.645Z,5.30
2018-12-18T00:59:44.433Z,5.30
2018-12-18T01:02:13.050Z,5.30
2018-12-18T01:04:41.908Z,5.00
2018-12-18T01:07:10.146Z,5.00
2018-12-18T01:09:38.434Z,5.00
2018-12-18T01:12:06.836Z,5.20
2018-12-18T01:14:35.361Z,5.20
2018-12-18T01:17:03.924Z,4.90
2018-12-18T01:19:32.749Z,5.00
2018-12-18T01:22:01.303Z,4.90
2018-12-18T01:24:29.678Z,4.70
2018-12-18T01:26:57.910Z,4.80
2018-12-18T01:29:26.797Z,5.00
2018-12-18T01:31:55.337Z,4.90
2018-12-18T01:34:24.426Z,4.90
2018-12-18T01:36:52.953Z,4.40
2018-12-18T01:39:21.696Z,4.50
2018-12-18T01:41:49.916Z,4.80
2018-12-18T01:44:18.149Z,4.90
2018-12-18T01:46:46.369Z,4.30
2018-12-18T01:49:14.940Z,4.50
2018-12-18T01:51:43.492Z,4.50
2018-12-18T01:54:11.750Z,4.40
2018-12-18T01:56:40.196Z,4.10
2018-12-18T01:59:08.543Z,4.00
2018-12-18T02:01:37.419Z,4.20
2018-12-18T02:04:06.165Z,4.20
2018-12-18T02:06:34.805Z,3.90
2018-12-18T02:09:05.001Z,3.70
2018-12-18T02:11:33.303Z,3.70
2018-12-18T02:14:01.739Z,3.60
2018-12-18T02:16:29.977Z,3.40
2018-12-18T02:18:58.349Z,3.80
2018-12-18T02:21:26.627Z,3.40
2018-12-18T02:23:54.896Z,3.80
2018-12-18T02:26:23.341Z,3.70
2018-12-18T02:28:51.830Z,3.70
2018-12-18T02:31:20.419Z,3.60
2018-12-18T02:33:49.003Z,3.60
2018-12-18T02:36:17.892Z,3.80
2018-12-18T02:38:46.197Z,3.50
2018-12-18T02:41:14.723Z,3.50
2018-12-18T02:43:43.336Z,3.20
2018-12-18T02:46:11.588Z,3.30
2018-12-18T02:48:39.837Z,3.50
2018-12-18T02:51:08.062Z,3.60
2018-12-18T02:53:36.936Z,3.50
2018-12-18T02:56:05.281Z,3.60
2018-12-18T02:58:33.604Z,3.20
2018-12-18T03:01:01.966Z,3.60
2018-12-18T03:03:31.797Z,3.70
2018-12-18T03:06:00.104Z,3.90
2018-12-18T03:08:28.758Z,3.70
2018-12-18T03:10:57.238Z,3.70
2018-12-18T03:13:25.960Z,3.70
2018-12-18T03:15:54.512Z,3.30
2018-12-18T03:18:23.001Z,3.30
2018-12-18T03:20:51.392Z,3.30
2018-12-18T03:23:20.364Z,3.40
2018-12-18T03:25:48.859Z,3.30
2018-12-18T03:28:17.154Z,3.10
2018-12-18T03:30:45.428Z,3.10
2018-12-18T03:33:17.589Z,3.50
2018-12-18T03:35:47.778Z,3.00
2018-12-18T03:38:19.780Z,3.50
2018-12-18T03:40:51.157Z,3.10
2018-12-18T03:43:19.887Z,3.10
2018-12-18T03:45:48.401Z,3.00
2018-12-18T03:48:16.677Z,3.10
2018-12-18T03:50:45.178Z,3.40
2018-12-18T03:53:13.635Z,3.40
2018-12-18T03:55:41.917Z,3.00
2018-12-18T03:58:10.138Z,3.50
2018-12-18T04:00:38.697Z,3.50
2018-12-18T04:03:07.244Z,3.00
2018-12-18T04:05:35.485Z,3.30
2018-12-18T04:08:04.071Z,3.00
2018-12-18T04:10:32.662Z,3.40
2018-12-18T04:13:01.479Z,3.00
2018-12-18T04:15:29.903Z,3.10
2018-12-18T04:17:58.123Z,3.00
2018-12-18T04:20:26.655Z,2.70
2018-12-18T04:22:54.938Z,3.30
2018-12-18T04:25:24.471Z,3.40
2018-12-18T04:27:52.697Z,3.20
2018-12-18T04:30:21.262Z,3.20
2018-12-18T04:32:49.813Z,3.10
2018-12-18T04:35:20.085Z,3.00
2018-12-18T04:37:48.629Z,3.10
2018-12-18T04:40:17.595Z,3.20
2018-12-18T04:45:15.810Z,3.40
2018-12-18T04:47:44.702Z,3.40
2018-12-18T04:50:13.308Z,3.50
2018-12-18T04:52:42.353Z,3.20
2018-12-18T04:55:10.961Z,3.30
2018-12-18T04:57:39.537Z,3.10
2018-12-18T05:02:37.408Z,3.30
2018-12-18T05:05:05.838Z,3.20
2018-12-18T05:10:02.419Z,3.10
2018-12-18T05:12:30.990Z,2.90
2018-12-18T05:14:59.372Z,2.90
2018-12-18T05:17:27.677Z,2.90
2018-12-18T05:19:56.020Z,2.90
2018-12-18T05:22:24.683Z,2.90
2018-12-18T05:24:53.014Z,2.90
2018-12-18T05:27:22.532Z,2.90
2018-12-18T05:29:51.639Z,2.90
2018-12-18T05:32:19.947Z,2.90
2018-12-18T05:34:48.240Z,2.80
2018-12-18T05:37:16.806Z,2.80
2018-12-18T05:39:45.137Z,2.70
2018-12-18T05:42:14.405Z,2.80
2018-12-18T05:44:42.726Z,2.80
2018-12-18T05:47:10.986Z,2.80
2018-12-18T05:49:40.155Z,2.90
2018-12-18T05:52:08.433Z,2.80
2018-12-18T05:54:37.004Z,2.60
2018-12-18T05:57:05.484Z,2.50
2018-12-18T05:59:33.914Z,2.40
2018-12-18T06:02:02.633Z,2.40
2018-12-18T06:04:31.382Z,2.40
2018-12-18T06:06:59.609Z,2.50
2018-12-18T06:11:57.422Z,2.60
2018-12-18T06:14:26.542Z,2.60
2018-12-18T06:16:55.342Z,2.60
2018-12-18T06:19:23.964Z,2.70
2018-12-18T06:21:52.219Z,2.80
2018-12-18T06:24:23.907Z,2.40
2018-12-18T06:26:52.520Z,2.40
2018-12-18T06:29:20.858Z,2.30
2018-12-18T06:31:49.164Z,2.50
2018-12-18T06:34:17.470Z,2.50
2018-12-18T06:39:14.223Z,2.60
2018-12-18T06:41:42.556Z,2.80
2018-12-18T06:44:10.853Z,2.50
2018-12-18T06:49:07.529Z,2.30
2018-12-18T06:51:36.001Z,2.20
2018-12-18T06:54:04.340Z,2.20
2018-12-18T06:56:33.212Z,2.10
2018-12-18T06:59:02.005Z,1.70
2018-12-18T07:01:30.305Z,1.60
2018-12-18T07:03:58.953Z,2.10
2018-12-18T07:08:55.540Z,2.00
2018-12-18T07:11:24.102Z,2.00
2018-12-18T07:13:52.429Z,1.80
2018-12-18T07:16:21.085Z,2.10
2018-12-18T07:18:49.726Z,2.10
2018-12-18T07:21:18.374Z,2.10
2018-12-18T07:23:47.497Z,2.10
2018-12-18T07:26:15.901Z,2.20
2018-12-18T07:28:44.797Z,2.20
2018-12-18T07:31:13.204Z,2.00
2018-12-18T07:33:41.513Z,2.30
2018-12-18T07:36:10.105Z,1.90
2018-12-18T07:38:38.377Z,2.10
2018-12-18T07:41:06.693Z,2.10
2018-12-18T07:43:35.017Z,2.30
2018-12-18T07:46:03.834Z,2.40
2018-12-18T07:48:32.414Z,2.40
2018-12-18T07:53:29.440Z,2.50
2018-12-18T07:56:00.355Z,2.50
2018-12-18T07:58:28.728Z,2.60
2018-12-18T08:00:57.083Z,2.70
2018-12-18T08:05:53.889Z,2.80
2018-12-18T08:08:23.051Z,3.00
2018-12-18T08:10:51.420Z,3.10
2018-12-18T08:13:19.997Z,3.10
2018-12-18T08:15:48.321Z,3.20
2018-12-18T08:18:16.602Z,3.20
2018-12-18T08:20:46.258Z,3.10
2018-12-18T08:23:15.337Z,2.90
2018-12-18T08:25:43.942Z,3.20
2018-12-18T08:28:12.210Z,2.90
2018-12-18T08:33:08.631Z,3.40
2018-12-18T08:40:34.162Z,3.30
2018-12-18T08:43:02.425Z,3.40
2018-12-18T08:45:30.668Z,3.40
2018-12-18T08:50:27.222Z,3.50
2018-12-18T08:57:52.253Z,3.40
2018-12-18T09:02:49.144Z,3.70
2018-12-18T09:05:17.699Z,3.60
2018-12-18T09:10:14.848Z,4.00
2018-12-18T09:12:43.424Z,4.10
2018-12-18T09:15:17.510Z,4.00
2018-12-18T09:17:46.579Z,3.90
2018-12-18T09:20:15.100Z,3.90
2018-12-18T09:22:44.933Z,4.00
2018-12-18T09:30:11.061Z,4.30
2018-12-18T09:32:39.540Z,4.20
2018-12-18T09:35:08.348Z,4.60
2018-12-18T09:40:07.794Z,4.60
2018-12-18T09:42:41.762Z,4.20
2018-12-18T09:45:10.817Z,4.70
2018-12-18T09:52:36.740Z,4.70
2018-12-18T09:57:39.693Z,4.80
2018-12-18T10:00:08.566Z,4.90
2018-12-18T10:02:37.146Z,5.00
2018-12-18T10:05:06.302Z,5.10
2018-12-18T10:07:34.916Z,5.20
2018-12-18T10:12:37.371Z,5.20
2018-12-18T10:17:35.605Z,5.40
2018-12-18T10:20:04.018Z,5.50
2018-12-18T10:25:00.811Z,5.50
2018-12-18T10:29:57.834Z,5.60
2018-12-18T10:32:26.419Z,5.60
2018-12-18T10:37:23.653Z,5.80
2018-12-18T10:39:52.207Z,5.80
2018-12-18T10:42:20.550Z,5.80
2018-12-18T10:44:48.891Z,5.80
2018-12-18T10:47:17.551Z,6.00
2018-12-18T10:49:45.999Z,6.10
2018-12-18T10:52:14.620Z,6.10
2018-12-18T10:54:44.083Z,6.10
2018-12-18T10:57:12.441Z,6.20
2018-12-18T10:59:41.290Z,6.20
2018-12-18T11:02:09.650Z,5.90
2018-12-18T11:04:39.953Z,6.30
2018-12-18T11:07:08.981Z,6.30
2018-12-18T11:09:37.365Z,6.40
2018-12-18T11:12:06.692Z,6.50
2018-12-18T11:14:35.042Z,6.70
2018-12-18T11:17:03.388Z,6.70
2018-12-18T11:19:33.107Z,6.80
2018-12-18T11:24:32.581Z,7.10
2018-12-18T11:27:01.698Z,7.10
2018-12-18T11:29:29.948Z,7.30
2018-12-18T11:31:58.962Z,7.30
2018-12-18T11:34:27.853Z,7.30
2018-12-18T11:36:56.487Z,7.40
2018-12-18T11:39:24.795Z,7.40
2018-12-18T11:41:53.391Z,7.70
2018-12-18T11:44:24.116Z,7.70
2018-12-18T11:46:53.293Z,7.80
2018-12-18T11:49:23.734Z,7.80
2018-12-18T11:51:53.290Z,7.70
2018-12-18T11:54:23.785Z,7.80
2018-12-18T11:56:52.439Z,7.80
2018-12-18T11:59:20.909Z,8.00
2018-12-18T12:01:49.363Z,8.10
2018-12-18T12:04:23.124Z,8.10
2018-12-18T12:09:20.078Z,8.40
2018-12-18T12:11:49.010Z,8.50
2018-12-18T12:14:17.511Z,8.60
2018-12-18T12:16:46.317Z,8.60
2018-12-18T12:19:14.857Z,8.70
2018-12-18T12:21:43.177Z,8.60
2018-12-18T12:24:11.510Z,8.60
2018-12-18T12:29:31.583Z,8.80
2018-12-18T12:34:29.229Z,8.80
2018-12-18T12:36:58.057Z,8.90
2018-12-18T12:39:26.475Z,9.00
2018-12-18T12:41:54.780Z,9.00
2018-12-18T12:44:23.375Z,9.30
2018-12-18T12:49:25.726Z,9.50
2018-12-18T12:51:54.452Z,9.50
2018-12-18T12:54:22.755Z,9.40
2018-12-18T12:56:52.022Z,9.40
2018-12-18T12:59:20.306Z,9.30
2018-12-18T13:01:48.880Z,9.30
2018-12-18T13:06:46.242Z,9.30
2018-12-18T13:11:43.351Z,9.50
2018-12-18T13:14:11.773Z,9.90
2018-12-18T13:19:09.012Z,10.40
2018-12-18T13:21:37.632Z,10.70
2018-12-18T13:24:05.978Z,10.80
2018-12-18T13:26:37.725Z,10.90
2018-12-18T13:29:06.033Z,10.80
2018-12-18T13:31:34.906Z,10.90
2018-12-18T13:34:03.190Z,10.90
2018-12-18T13:36:31.606Z,11.20
2018-12-18T13:39:01.034Z,11.50
2018-12-18T13:41:29.337Z,12.00
2018-12-18T13:43:57.606Z,12.00
2018-12-18T13:46:27.105Z,12.10
2018-12-18T13:48:55.503Z,12.20
2018-12-18T13:51:24.045Z,12.10
2018-12-18T13:53:52.725Z,12.20
2018-12-18T13:58:50.901Z,12.90
2018-12-18T14:01:20.220Z,12.70
2018-12-18T14:03:50.105Z,12.60
2018-12-18T14:08:47.852Z,12.70
2018-12-18T14:11:17.063Z,12.60
2018-12-18T14:13:50.172Z,12.60
2018-12-18T14:16:18.941Z,12.70
2018-12-18T14:18:47.351Z,12.70
2018-12-18T14:21:16.597Z,12.60
2018-12-18T14:23:45.733Z,13.00
2018-12-18T14:26:14.571Z,12.80
2018-12-18T14:28:42.849Z,12.70
2018-12-18T14:33:40.076Z,12.40
2018-12-18T14:36:08.773Z,12.40
2018-12-18T14:38:37.357Z,12.20
2018-12-18T14:41:08.285Z,11.10
2018-12-18T14:43:38.409Z,10.70
2018-12-18T14:46:07.982Z,10.40
2018-12-18T14:56:05.830Z,9.10
2018-12-18T14:58:35.180Z,8.90
2018-12-18T15:01:03.727Z,8.80
2018-12-18T15:03:32.358Z,8.60
2018-12-18T15:06:02.368Z,8.40
2018-12-18T15:08:31.112Z,8.50
2018-12-18T15:11:00.488Z,8.20
2018-12-18T15:13:29.979Z,8.10
2018-12-18T15:15:59.350Z,8.00
2018-12-18T15:18:27.758Z,7.90
2018-12-18T15:20:57.523Z,7.80
2018-12-18T15:23:26.483Z,7.70
2018-12-18T15:28:25.135Z,7.40
2018-12-18T15:30:53.726Z,7.20
2018-12-18T15:35:51.517Z,6.80
2018-12-18T15:38:20.814Z,6.80
2018-12-18T15:43:19.422Z,6.50
2018-12-18T15:45:49.032Z,6.50
2018-12-18T15:48:20.125Z,6.40
2018-12-18T15:50:48.633Z,6.20
2018-12-18T15:53:17.262Z,6.10
2018-12-18T15:55:46.106Z,6.10
2018-12-18T15:58:15.526Z,6.10
2018-12-18T16:00:44.073Z,6.00
2018-12-18T16:03:13.238Z,6.00
2018-12-18T16:05:42.867Z,6.00
2018-12-18T16:08:11.172Z,6.10
2018-12-18T16:10:39.478Z,6.00
2018-12-18T16:13:08.313Z,6.00
2018-12-18T16:15:37.565Z,6.00
2018-12-18T16:18:05.912Z,5.80
2018-12-18T16:20:34.250Z,5.80
2018-12-18T16:23:02.612Z,5.70
2018-12-18T16:25:30.924Z,5.80
2018-12-18T16:27:59.452Z,5.70
2018-12-18T16:30:28.357Z,5.80
2018-12-18T16:32:57.778Z,5.80
2018-12-18T16:37:54.563Z,5.60
2018-12-18T16:42:51.708Z,5.40
2018-12-18T16:45:20.473Z,5.30
2018-12-18T16:47:48.990Z,5.30
2018-12-18T16:52:45.747Z,5.10
2018-12-18T16:55:14.209Z,5.10
2018-12-18T16:57:42.518Z,5.00
2018-12-18T17:02:39.194Z,4.90
2018-12-18T17:05:08.121Z,4.90
2018-12-18T17:07:36.736Z,4.80
2018-12-18T17:10:06.496Z,4.70
2018-12-18T17:12:35.129Z,4.70
2018-12-18T17:17:31.718Z,4.70
2018-12-18T17:20:00.290Z,4.60
2018-12-18T17:22:29.983Z,4.60
2018-12-18T17:24:58.287Z,4.60
2018-12-18T17:29:55.146Z,4.50
2018-12-18T17:32:23.695Z,4.50
2018-12-18T17:37:20.321Z,4.40
2018-12-18T17:39:48.890Z,4.40
2018-12-18T17:42:17.828Z,4.10
2018-12-18T17:44:46.309Z,4.40
2018-12-18T17:47:14.668Z,4.40
2018-12-18T17:49:43.269Z,4.30
2018-12-18T17:52:11.555Z,4.20
2018-12-18T17:54:40.012Z,4.20
2018-12-18T17:57:08.476Z,4.10
2018-12-18T17:59:37.258Z,3.80
2018-12-18T18:02:06.938Z,4.10
2018-12-18T18:04:35.962Z,4.00
2018-12-18T18:07:04.703Z,4.00
2018-12-18T18:09:33.096Z,3.90
2018-12-18T18:12:01.732Z,3.60
2018-12-18T18:14:30.370Z,3.90
2018-12-18T18:16:58.926Z,3.90
2018-12-18T18:21:55.507Z,3.90
2018-12-18T18:24:24.144Z,3.80
2018-12-18T18:26:52.475Z,3.80
2018-12-18T18:29:20.789Z,3.80
2018-12-18T18:31:49.146Z,3.70
2018-12-18T18:39:17.147Z,3.60
2018-12-18T18:41:45.717Z,3.60
2018-12-18T18:44:14.210Z,3.60
2018-12-18T18:46:43.168Z,3.60
2018-12-18T18:51:39.869Z,3.50
2018-12-18T18:54:08.295Z,3.30
2018-12-18T18:59:05.185Z,3.40
2018-12-18T19:01:33.499Z,3.40
2018-12-18T19:04:03.585Z,3.40
2018-12-18T19:06:32.158Z,3.40
2018-12-18T19:09:00.678Z,3.40
2018-12-18T19:11:29.252Z,3.40
2018-12-18T19:13:57.545Z,3.40
2018-12-18T19:16:26.263Z,3.30
2018-12-18T19:18:54.796Z,3.30
2018-12-18T19:21:23.131Z,3.30
2018-12-18T19:23:52.106Z,3.20
2018-12-18T19:26:20.506Z,3.20
2018-12-18T19:28:50.378Z,2.80
2018-12-18T19:33:47.628Z,3.20
2018-12-18T19:36:15.922Z,3.20
2018-12-18T19:41:12.673Z,3.20
2018-12-18T19:48:38.323Z,3.10
2018-12-18T19:51:07.036Z,3.10
2018-12-18T19:53:35.449Z,2.60
2018-12-18T19:56:03.739Z,3.10
2018-12-18T19:58:32.245Z,2.60
2018-12-18T20:01:00.520Z,3.10
2018-12-18T20:03:29.140Z,2.70
2018-12-18T20:05:57.411Z,2.80
2018-12-18T20:08:25.720Z,2.60
2018-12-18T20:10:56.419Z,3.10
2018-12-18T20:13:24.665Z,3.00
2018-12-18T20:15:52.926Z,3.10
2018-12-18T20:18:21.164Z,2.90
2018-12-18T20:20:50.834Z,2.50
2018-12-18T20:23:19.726Z,2.70
2018-12-18T20:25:48.675Z,2.90
2018-12-18T20:28:18.816Z,3.10
2018-12-18T20:30:47.496Z,2.70
2018-12-18T20:33:16.409Z,3.20
2018-12-18T20:35:45.221Z,2.90
2018-12-18T20:38:16.988Z,3.00
2018-12-18T20:40:44.651Z,3.40
2018-12-18T20:43:12.932Z,3.30
2018-12-18T20:45:41.289Z,3.20
2018-12-18T20:48:09.564Z,3.50
2018-12-18T20:50:39.180Z,3.20
2018-12-18T20:53:07.767Z,3.20
2018-12-18T20:55:36.105Z,3.10
2018-12-18T20:58:05.752Z,3.10
2018-12-18T21:00:35.535Z,3.10
2018-12-18T21:05:32.664Z,3.10
2018-12-18T21:10:29.330Z,3.00
2018-12-18T21:13:03.379Z,2.70
2018-12-18T21:18:00.525Z,2.80
2018-12-18T21:20:29.549Z,2.80
2018-12-18T21:22:58.609Z,2.70
2018-12-18T21:25:26.954Z,2.70
2018-12-18T21:30:23.741Z,2.70
2018-12-18T21:32:52.031Z,2.60
2018-12-18T21:35:20.352Z,2.40
2018-12-18T21:37:48.608Z,2.60
2018-12-18T21:42:45.133Z,2.50
2018-12-18T21:45:13.423Z,2.50
2018-12-18T21:47:41.959Z,2.10
2018-12-18T21:50:10.330Z,1.40
2018-12-18T21:52:38.609Z,2.40
2018-12-18T21:55:07.021Z,2.50
2018-12-18T21:57:35.647Z,2.10
2018-12-18T22:00:05.829Z,2.20
2018-12-18T22:02:34.187Z,2.20
2018-12-18T22:05:02.457Z,2.60
2018-12-18T22:07:31.050Z,2.50
2018-12-18T22:09:59.717Z,2.50
2018-12-18T22:12:27.962Z,2.20
2018-12-18T22:14:56.676Z,2.50
2018-12-18T22:17:25.311Z,2.40
2018-12-18T22:19:53.598Z,2.40
2018-12-18T22:22:21.889Z,1.90
2018-12-18T22:24:51.561Z,2.00
2018-12-18T22:27:20.599Z,2.30
2018-12-18T22:29:49.305Z,2.20
2018-12-18T22:32:17.714Z,2.20
2018-12-18T22:34:46.075Z,2.20
2018-12-18T22:37:14.478Z,1.80
2018-12-18T22:39:43.650Z,2.40
2018-12-18T22:42:12.265Z,2.10
2018-12-18T22:44:41.812Z,1.70
2018-12-18T22:47:10.380Z,2.30
2018-12-18T22:49:38.745Z,1.80
2018-12-18T22:52:07.391Z,2.00
2018-12-18T22:54:35.745Z,2.00
2018-12-18T22:57:03.964Z,2.00
2018-12-18T22:59:32.771Z,2.00
2018-12-18T23:04:45.876Z,2.00
2018-12-18T23:07:14.190Z,1.80
2018-12-18T23:09:43.987Z,2.00
2018-12-18T23:12:13.069Z,2.00
2018-12-18T23:14:41.392Z,1.90
2018-12-18T23:17:09.656Z,1.60
2018-12-18T23:19:38.717Z,1.80
2018-12-18T23:22:07.663Z,1.50
2018-12-18T23:24:35.991Z,1.90
2018-12-18T23:29:34.030Z,1.90
2018-12-18T23:32:02.752Z,1.50
2018-12-18T23:34:33.166Z,1.90
2018-12-18T23:37:02.007Z,1.50
2018-12-18T23:39:30.535Z,1.50
2018-12-18T23:41:59.642Z,2.00
2018-12-18T23:44:28.025Z,1.60
2018-12-18T23:46:56.294Z,1.90
2018-12-18T23:49:24.833Z,1.80
2018-12-18T23:51:53.060Z,1.50
2018-12-18T23:54:21.687Z,1.80
2018-12-18T23:56:50.133Z,1.40
2018-12-18T23:59:18.702Z,1.70
